Terminal Aerodrome Forecast
Issued by NWS

Home | Current Version | Previous Version | Text Only | Print | Product List | Glossary On
Versions: 1 2 3 4 5 6 7 8 9 10 11 12 13 14 15 16 17 18 19 20 21
000
FTUS43 KIND 231100
TAFHUF
TAF
KHUF 231120Z 2312/2412 VRB02KT P6SM BKN150
     FM231500 16004KT P6SM SCT050 BKN120
     FM231800 18007KT P6SM SCT060 BKN100
     FM240100 13003KT P6SM BKN100
     FM241100 15006KT P6SM -SHRA OVC050=

USA.gov is the U.S. government's official web portal to all federal, state and local government web resources and services.